Time;durP1;ratioP1;P1;durP2;ratioP2;P2;SDS_P1;SDS_P2;PMS_P1;PMS_P2;Temp;Humidity;BMP_temperature;BMP_pressure;BME280_temperature;BME280_humidity;BME280_pressure;Samples;Min_cycle;Max_cycle;Signal;HPM_P1;HPM_P2
2022/08/06 00:01:16;;;;;;;13.20;11.40;;;;;;;;;;110637;1251;34715;-38
2022/08/06 00:03:49;;;;;;;12.50;11.20;;;;;;;;;;110603;1251;33201;-37
2022/08/06 00:06:22;;;;;;;12.70;11.50;;;;;;;;;;110571;1251;35368;-38
2022/08/06 00:08:59;;;;;;;12.20;11.00;;;;;;;;;;110586;1246;33497;-36
2022/08/06 00:11:31;;;;;;;13.00;11.70;;;;;;;;;;110546;1251;34098;-39
2022/08/06 00:14:04;;;;;;;12.90;11.70;;;;;;;;;;110559;1251;32428;-37
2022/08/06 00:16:36;;;;;;;12.60;11.30;;;;;;;;;;110542;1246;32602;-38
2022/08/06 00:19:08;;;;;;;12.90;11.60;;;;;;;;;;110586;1245;33301;-37
2022/08/06 00:21:41;;;;;;;12.40;11.30;;;;;;;;;;110504;1244;35436;-37
2022/08/06 00:24:13;;;;;;;14.20;12.90;;;;;;;;;;110537;1251;35031;-36
2022/08/06 00:26:46;;;;;;;12.20;11.00;;;;;;;;;;110609;1251;33552;-40
2022/08/06 00:29:17;;;;;;;13.60;12.30;;;;;;;;;;110624;1247;34980;-39
2022/08/06 00:31:49;;;;;;;13.20;11.80;;;;;;;;;;110685;1251;34877;-40
2022/08/06 00:34:21;;;;;;;13.90;12.40;;;;;;;;;;110670;1244;33445;-40
2022/08/06 00:36:54;;;;;;;14.40;12.40;;;;;;;;;;110557;1251;35481;-39
2022/08/06 00:39:26;;;;;;;13.80;12.50;;;;;;;;;;110631;1251;35001;-40
2022/08/06 00:41:58;;;;;;;14.80;13.40;;;;;;;;;;110558;1245;35009;-37
2022/08/06 00:44:30;;;;;;;14.30;12.90;;;;;;;;;;110611;1251;33195;-37
2022/08/06 00:47:03;;;;;;;14.70;13.20;;;;;;;;;;110539;1251;33406;-40
2022/08/06 00:49:35;;;;;;;13.50;12.20;;;;;;;;;;110610;1251;35506;-40
2022/08/06 00:52:07;;;;;;;14.90;13.40;;;;;;;;;;110585;1251;33256;-35
2022/08/06 00:54:39;;;;;;;15.00;13.40;;;;;;;;;;110625;1251;33277;-36
2022/08/06 00:57:14;;;;;;;13.70;12.40;;;;;;;;;;110521;1245;34175;-35
2022/08/06 00:59:46;;;;;;;14.40;12.90;;;;;;;;;;110522;1251;32237;-35
2022/08/06 01:02:18;;;;;;;14.00;12.60;;;;;;;;;;110502;1244;34192;-35
2022/08/06 01:04:51;;;;;;;14.50;13.00;;;;;;;;;;110562;1244;34889;-35
2022/08/06 01:07:23;;;;;;;14.20;12.80;;;;;;;;;;110557;1244;35458;-35
2022/08/06 01:09:55;;;;;;;15.30;13.80;;;;;;;;;;110494;1251;35079;-35
2022/08/06 01:12:27;;;;;;;15.10;13.80;;;;;;;;;;110518;1247;35258;-35
2022/08/06 01:14:59;;;;;;;14.00;12.80;;;;;;;;;;110557;1251;35309;-35
2022/08/06 01:17:38;;;;;;;15.00;13.50;;;;;;;;;;110487;1251;34003;-35
2022/08/06 01:20:25;;;;;;;14.00;12.60;;;;;;;;;;110535;1246;32388;-35
2022/08/06 01:23:21;;;;;;;14.20;12.70;;;;;;;;;;110565;1251;35004;-35
2022/08/06 01:26:22;;;;;;;14.60;13.30;;;;;;;;;;110571;1244;33211;-36
2022/08/06 01:28:59;;;;;;;14.60;13.20;;;;;;;;;;110563;1251;33733;-35
2022/08/06 01:31:39;;;;;;;14.00;12.60;;;;;;;;;;110562;1251;34039;-35
2022/08/06 01:34:19;;;;;;;14.20;12.90;;;;;;;;;;110610;1247;34940;-34
2022/08/06 01:36:56;;;;;;;13.70;12.30;;;;;;;;;;110589;1251;34995;-34
2022/08/06 01:39:30;;;;;;;14.30;12.80;;;;;;;;;;110571;1251;34691;-34
2022/08/06 01:42:00;;;;;;;;;;;;;;;;;;110558;1251;34254;-35
2022/08/06 01:44:35;;;;;;;13.70;12.40;;;;;;;;;;110558;1251;33401;-36
2022/08/06 01:47:11;;;;;;;14.10;12.90;;;;;;;;;;110583;1251;34098;-35
2022/08/06 01:49:47;;;;;;;14.20;12.90;;;;;;;;;;110514;1246;35459;-35
2022/08/06 01:52:20;;;;;;;14.10;12.90;;;;;;;;;;110532;1244;32939;-36
2022/08/06 01:54:54;;;;;;;15.40;14.10;;;;;;;;;;110555;1251;33930;-34
2022/08/06 01:57:28;;;;;;;15.10;13.70;;;;;;;;;;110549;1244;35020;-35
2022/08/06 02:00:01;;;;;;;14.80;13.50;;;;;;;;;;110539;1245;33692;-35
2022/08/06 02:02:35;;;;;;;14.40;12.90;;;;;;;;;;110587;1251;33913;-35
2022/08/06 02:05:09;;;;;;;14.90;13.50;;;;;;;;;;110528;1244;33153;-35
2022/08/06 02:07:47;;;;;;;14.50;13.20;;;;;;;;;;110554;1251;35046;-35
2022/08/06 02:10:22;;;;;;;13.50;12.20;;;;;;;;;;110569;1251;30962;-35
2022/08/06 02:12:55;;;;;;;14.00;12.70;;;;;;;;;;110550;1251;34613;-35
2022/08/06 02:15:30;;;;;;;14.20;13.00;;;;;;;;;;110535;1251;35191;-35
2022/08/06 02:18:04;;;;;;;14.70;13.20;;;;;;;;;;110558;1251;33628;-35
2022/08/06 02:20:41;;;;;;;13.80;12.50;;;;;;;;;;110567;1244;33583;-35
2022/08/06 02:23:19;;;;;;;13.60;12.40;;;;;;;;;;110528;1251;34645;-35
2022/08/06 02:25:54;;;;;;;13.80;12.50;;;;;;;;;;110556;1247;34718;-35
2022/08/06 02:28:28;;;;;;;13.80;12.50;;;;;;;;;;110551;1243;33045;-35
2022/08/06 02:31:00;;;;;;;14.40;13.20;;;;;;;;;;110546;1244;33758;-35
2022/08/06 02:33:32;;;;;;;14.40;13.00;;;;;;;;;;110584;1251;34789;-35
2022/08/06 02:36:11;;;;;;;14.00;12.80;;;;;;;;;;110496;1251;34160;-35
2022/08/06 02:38:51;;;;;;;13.20;12.00;;;;;;;;;;110609;1251;35340;-34
2022/08/06 02:41:29;;;;;;;14.30;12.90;;;;;;;;;;110561;1251;32475;-34
2022/08/06 02:44:08;;;;;;;14.40;12.90;;;;;;;;;;110513;1244;32469;-34
2022/08/06 02:46:47;;;;;;;14.60;13.20;;;;;;;;;;110536;1244;33446;-34
2022/08/06 02:49:23;;;;;;;15.20;13.00;;;;;;;;;;110549;1251;34786;-34
2022/08/06 02:52:01;;;;;;;16.50;13.00;;;;;;;;;;110617;1244;32570;-34
2022/08/06 02:54:39;;;;;;;15.10;13.50;;;;;;;;;;110531;1244;33946;-34
2022/08/06 02:57:22;;;;;;;14.60;13.10;;;;;;;;;;110597;1243;33432;-36
2022/08/06 03:00:01;;;;;;;13.90;12.50;;;;;;;;;;110562;1244;34944;-36
2022/08/06 03:02:36;;;;;;;15.00;13.70;;;;;;;;;;110519;1251;35452;-36
2022/08/06 03:05:16;;;;;;;14.80;13.20;;;;;;;;;;110566;1251;34126;-36
2022/08/06 03:07:50;;;;;;;13.70;12.30;;;;;;;;;;110537;1251;34809;-36
2022/08/06 03:10:25;;;;;;;14.30;12.90;;;;;;;;;;110561;1251;35364;-36
2022/08/06 03:12:59;;;;;;;15.10;13.70;;;;;;;;;;110594;1251;34558;-36
2022/08/06 03:15:30;;;;;;;;;;;;;;;;;;110537;1251;33612;-35
2022/08/06 03:18:06;;;;;;;15.30;13.70;;;;;;;;;;110581;1251;34596;-36
2022/08/06 03:20:39;;;;;;;16.20;14.70;;;;;;;;;;110567;1244;35192;-36
2022/08/06 03:23:12;;;;;;;15.10;13.70;;;;;;;;;;110505;1244;32954;-36
2022/08/06 03:25:46;;;;;;;14.70;13.40;;;;;;;;;;110533;1251;34326;-36
2022/08/06 03:28:18;;;;;;;15.10;13.80;;;;;;;;;;110542;1251;34813;-36
2022/08/06 03:30:51;;;;;;;15.60;14.10;;;;;;;;;;110587;1251;33179;-35
2022/08/06 03:33:24;;;;;;;;;;;;;;;;;;110609;1244;32968;-36
2022/08/06 03:35:59;;;;;;;15.40;13.80;;;;;;;;;;110577;1244;33510;-36
2022/08/06 03:38:35;;;;;;;15.60;14.00;;;;;;;;;;110534;1251;33258;-36
2022/08/06 03:41:09;;;;;;;15.40;13.80;;;;;;;;;;110557;1244;34966;-36
2022/08/06 03:43:41;;;;;;;15.50;13.90;;;;;;;;;;110570;1244;33746;-36
2022/08/06 03:46:26;;;;;;;15.10;13.70;;;;;;;;;;110567;1251;33406;-36
2022/08/06 03:49:00;;;;;;;16.50;14.80;;;;;;;;;;110570;1244;33490;-36
2022/08/06 03:51:36;;;;;;;15.50;14.10;;;;;;;;;;110509;1246;33226;-35
2022/08/06 03:54:10;;;;;;;15.20;13.80;;;;;;;;;;110567;1251;34937;-35
2022/08/06 03:56:43;;;;;;;15.60;14.20;;;;;;;;;;110569;1244;34586;-35
2022/08/06 03:59:19;;;;;;;16.10;14.40;;;;;;;;;;110607;1251;32984;-35
2022/08/06 04:01:52;;;;;;;15.50;14.00;;;;;;;;;;110594;1244;35241;-36
2022/08/06 04:04:26;;;;;;;16.30;14.80;;;;;;;;;;110574;1252;36254;-35
2022/08/06 04:07:00;;;;;;;15.50;14.00;;;;;;;;;;110535;1244;34654;-35
2022/08/06 04:09:34;;;;;;;15.30;13.80;;;;;;;;;;110634;1244;32966;-36
2022/08/06 04:12:09;;;;;;;15.40;14.00;;;;;;;;;;110600;1243;34183;-35
2022/08/06 04:14:41;;;;;;;16.40;14.00;;;;;;;;;;110573;1244;33910;-35
2022/08/06 04:17:14;;;;;;;15.10;13.60;;;;;;;;;;110550;1251;35173;-35
2022/08/06 04:19:47;;;;;;;15.30;13.80;;;;;;;;;;110205;1252;422964;-35
2022/08/06 04:22:20;;;;;;;14.70;13.10;;;;;;;;;;110571;1252;34211;-35
2022/08/06 04:24:52;;;;;;;14.70;13.30;;;;;;;;;;110537;1251;34886;-35
2022/08/06 04:27:25;;;;;;;14.80;13.30;;;;;;;;;;110526;1244;34289;-36
2022/08/06 04:29:59;;;;;;;14.70;13.40;;;;;;;;;;110577;1251;35302;-35
2022/08/06 04:32:34;;;;;;;14.60;13.00;;;;;;;;;;110550;1251;34356;-35
2022/08/06 04:35:09;;;;;;;14.50;13.10;;;;;;;;;;110585;1245;33883;-36
2022/08/06 04:37:44;;;;;;;14.10;12.70;;;;;;;;;;110523;1244;32832;-36
2022/08/06 04:40:17;;;;;;;14.00;12.70;;;;;;;;;;110540;1244;34187;-36
2022/08/06 04:42:52;;;;;;;14.00;12.70;;;;;;;;;;110524;1251;34846;-36
2022/08/06 04:45:25;;;;;;;13.50;12.10;;;;;;;;;;110550;1251;33284;-36
2022/08/06 04:47:59;;;;;;;;;;;;;;;;;;110640;1244;33268;-36
2022/08/06 04:50:33;;;;;;;;;;;;;;;;;;110502;1247;34340;-36
2022/08/06 04:53:13;;;;;;;12.70;11.50;;;;;;;;;;110583;1251;34792;-36
2022/08/06 04:55:47;;;;;;;13.40;12.10;;;;;;;;;;110580;1251;33253;-36
2022/08/06 04:58:21;;;;;;;12.70;11.30;;;;;;;;;;110585;1251;34851;-36
2022/08/06 05:00:53;;;;;;;12.50;11.30;;;;;;;;;;110614;1247;34105;-35
2022/08/06 05:03:28;;;;;;;11.80;10.60;;;;;;;;;;110524;1244;33704;-36
2022/08/06 05:06:09;;;;;;;11.40;10.30;;;;;;;;;;110540;1244;34730;-36
2022/08/06 05:08:44;;;;;;;11.50;10.40;;;;;;;;;;110564;1251;35261;-36
2022/08/06 05:11:20;;;;;;;11.30;10.20;;;;;;;;;;110553;1251;33608;-36
2022/08/06 05:13:56;;;;;;;10.60;9.60;;;;;;;;;;110575;1244;35431;-35
2022/08/06 05:16:30;;;;;;;10.30;9.30;;;;;;;;;;110556;1244;34608;-35
2022/08/06 05:19:09;;;;;;;10.20;9.20;;;;;;;;;;110589;1244;33166;-36
2022/08/06 05:21:43;;;;;;;10.90;9.90;;;;;;;;;;110535;1244;33650;-35
2022/08/06 05:24:15;;;;;;;10.10;9.10;;;;;;;;;;110560;1251;33778;-35
2022/08/06 05:26:48;;;;;;;9.70;8.80;;;;;;;;;;110587;1251;33895;-35
2022/08/06 05:29:23;;;;;;;10.20;9.20;;;;;;;;;;110562;1246;34353;-35
2022/08/06 05:32:02;;;;;;;9.70;8.50;;;;;;;;;;110569;1251;33121;-34
2022/08/06 05:34:37;;;;;;;9.50;8.60;;;;;;;;;;110607;1251;34483;-35
2022/08/06 05:37:09;;;;;;;9.50;8.10;;;;;;;;;;110582;1251;33513;-34
2022/08/06 05:39:42;;;;;;;8.60;7.80;;;;;;;;;;110515;1245;34807;-35
2022/08/06 05:42:17;;;;;;;8.30;7.50;;;;;;;;;;110578;1251;33252;-34
2022/08/06 05:44:49;;;;;;;8.90;8.00;;;;;;;;;;110571;1245;34918;-34
2022/08/06 05:47:27;;;;;;;8.60;7.60;;;;;;;;;;110534;1251;34701;-34
2022/08/06 05:50:07;;;;;;;9.00;8.10;;;;;;;;;;110589;1251;33888;-34
2022/08/06 05:52:46;;;;;;;8.20;7.40;;;;;;;;;;110556;1244;34750;-34
2022/08/06 05:55:23;;;;;;;9.10;8.10;;;;;;;;;;110545;1244;33627;-34
2022/08/06 05:57:59;;;;;;;8.70;7.90;;;;;;;;;;110569;1244;33500;-35
2022/08/06 06:00:34;;;;;;;8.30;7.40;;;;;;;;;;110593;1251;34744;-34
2022/08/06 06:03:11;;;;;;;8.30;7.50;;;;;;;;;;110549;1251;33916;-33
2022/08/06 06:05:44;;;;;;;9.60;8.00;;;;;;;;;;110581;1244;33157;-35
2022/08/06 06:08:19;;;;;;;8.60;7.80;;;;;;;;;;110577;1247;32917;-34
2022/08/06 06:10:52;;;;;;;9.70;8.60;;;;;;;;;;110551;1251;34105;-34
2022/08/06 06:13:27;;;;;;;9.00;8.20;;;;;;;;;;110557;1244;34786;-35
2022/08/06 06:16:10;;;;;;;9.00;8.10;;;;;;;;;;110555;1251;34693;-35
2022/08/06 06:19:03;;;;;;;9.30;7.80;;;;;;;;;;110633;1244;33191;-35
2022/08/06 06:21:49;;;;;;;9.10;8.10;;;;;;;;;;110511;1247;35029;-35
2022/08/06 06:24:30;;;;;;;8.60;7.80;;;;;;;;;;110546;1251;33143;-35
2022/08/06 06:27:08;;;;;;;8.70;7.80;;;;;;;;;;110537;1244;34187;-35
2022/08/06 06:29:51;;;;;;;8.40;7.50;;;;;;;;;;110551;1244;35270;-35
2022/08/06 06:32:40;;;;;;;8.90;8.00;;;;;;;;;;110559;1251;35256;-35
2022/08/06 06:35:22;;;;;;;9.20;8.30;;;;;;;;;;110576;1247;34141;-34
2022/08/06 06:38:03;;;;;;;9.10;7.60;;;;;;;;;;110552;1244;35345;-35
2022/08/06 06:40:47;;;;;;;9.30;8.40;;;;;;;;;;110535;1251;34816;-34
2022/08/06 06:43:28;;;;;;;9.30;7.80;;;;;;;;;;110581;1251;34689;-35
2022/08/06 06:46:03;;;;;;;8.10;7.30;;;;;;;;;;110575;1245;34855;-35
2022/08/06 06:48:41;;;;;;;7.60;6.80;;;;;;;;;;110576;1244;34308;-34
2022/08/06 06:51:21;;;;;;;8.40;7.50;;;;;;;;;;110581;1244;33389;-34
2022/08/06 06:53:54;;;;;;;8.40;6.70;;;;;;;;;;110627;1252;33101;-34
2022/08/06 06:56:31;;;;;;;8.00;7.20;;;;;;;;;;110579;1252;34503;-34
2022/08/06 06:59:07;;;;;;;7.90;7.10;;;;;;;;;;110570;1245;35045;-34
2022/08/06 07:01:40;;;;;;;8.20;7.30;;;;;;;;;;110571;1244;33140;-34
2022/08/06 07:04:16;;;;;;;7.60;6.80;;;;;;;;;;110547;1251;34604;-34
2022/08/06 07:06:51;;;;;;;7.30;6.40;;;;;;;;;;110604;1251;34564;-34
2022/08/06 07:09:28;;;;;;;7.60;6.60;;;;;;;;;;110544;1251;34905;-34
2022/08/06 07:12:01;;;;;;;10.10;6.70;;;;;;;;;;110532;1251;33868;-34
2022/08/06 07:14:35;;;;;;;8.60;7.30;;;;;;;;;;110560;1247;34912;-35
2022/08/06 07:17:09;;;;;;;10.10;7.70;;;;;;;;;;110539;1250;34653;-35
2022/08/06 07:19:41;;;;;;;11.30;8.10;;;;;;;;;;110639;1244;32815;-37
2022/08/06 07:22:13;;;;;;;10.20;7.90;;;;;;;;;;110627;1244;33140;-36
2022/08/06 07:24:46;;;;;;;10.00;7.50;;;;;;;;;;110639;1251;33131;-37
2022/08/06 07:27:17;;;;;;;11.20;7.40;;;;;;;;;;110661;1244;34899;-36
2022/08/06 07:29:50;;;;;;;9.80;6.90;;;;;;;;;;110626;1251;34643;-35
2022/08/06 07:32:21;;;;;;;;;;;;;;;;;;110603;1251;33963;-37
2022/08/06 07:34:53;;;;;;;9.10;6.50;;;;;;;;;;110588;1252;34550;-37
2022/08/06 07:37:27;;;;;;;10.00;6.50;;;;;;;;;;110631;1244;33194;-37
2022/08/06 07:40:02;;;;;;;9.80;7.20;;;;;;;;;;110643;1251;33223;-36
2022/08/06 07:42:36;;;;;;;10.20;6.60;;;;;;;;;;110643;1244;34842;-37
2022/08/06 07:45:13;;;;;;;11.90;6.70;;;;;;;;;;110603;1251;35257;-35
2022/08/06 07:47:46;;;;;;;10.60;6.90;;;;;;;;;;110658;1251;35277;-36
2022/08/06 07:50:18;;;;;;;8.00;6.10;;;;;;;;;;110627;1251;33208;-38
2022/08/06 07:52:51;;;;;;;10.30;6.00;;;;;;;;;;110646;1247;34865;-37
2022/08/06 07:55:25;;;;;;;9.10;5.90;;;;;;;;;;110678;1244;33107;-36
2022/08/06 07:57:59;;;;;;;8.60;6.10;;;;;;;;;;110628;1251;34806;-36
2022/08/06 08:00:31;;;;;;;7.80;5.80;;;;;;;;;;110665;1251;34557;-37
2022/08/06 08:08:50;;;;;;;7.20;5.00;;;;;;;;;;110644;1247;33108;-37
2022/08/06 08:11:23;;;;;;;8.50;5.60;;;;;;;;;;110648;1244;33932;-37
2022/08/06 08:13:58;;;;;;;8.30;5.60;;;;;;;;;;110618;1251;33961;-36
2022/08/06 08:16:30;;;;;;;8.20;5.10;;;;;;;;;;110572;1253;34988;-37
2022/08/06 08:19:02;;;;;;;7.00;4.90;;;;;;;;;;110576;1247;33753;-36
2022/08/06 08:21:34;;;;;;;8.30;5.50;;;;;;;;;;110576;1253;34995;-36
2022/08/06 08:24:11;;;;;;;6.30;4.90;;;;;;;;;;110566;1253;34779;-37
2022/08/06 08:26:43;;;;;;;6.50;4.10;;;;;;;;;;110589;1253;34433;-37
2022/08/06 08:29:15;;;;;;;7.10;4.50;;;;;;;;;;110594;1248;35225;-36
2022/08/06 08:31:47;;;;;;;6.60;4.20;;;;;;;;;;110596;1248;33281;-36
2022/08/06 08:34:19;;;;;;;5.40;4.20;;;;;;;;;;110566;1248;33153;-37
2022/08/06 08:36:51;;;;;;;6.40;3.30;;;;;;;;;;110558;1253;34867;-37
2022/08/06 08:39:23;;;;;;;6.00;4.00;;;;;;;;;;110579;1253;35238;-37
2022/08/06 08:42:06;;;;;;;5.90;3.60;;;;;;;;;;110639;1245;35048;-38
2022/08/06 08:44:38;;;;;;;5.00;3.30;;;;;;;;;;110590;1253;34175;-37
2022/08/06 08:47:15;;;;;;;5.00;3.40;;;;;;;;;;110598;1248;34662;-37
2022/08/06 08:49:51;;;;;;;5.00;3.60;;;;;;;;;;110634;1253;33169;-37
2022/08/06 08:52:27;;;;;;;6.00;3.50;;;;;;;;;;110603;1253;35525;-37
2022/08/06 08:55:04;;;;;;;5.20;3.00;;;;;;;;;;110638;1247;34890;-37
2022/08/06 08:57:39;;;;;;;6.00;2.90;;;;;;;;;;110627;1244;34765;-37
2022/08/06 09:00:13;;;;;;;4.90;3.00;;;;;;;;;;110449;1248;33208;-37
2022/08/06 09:02:45;;;;;;;4.40;2.90;;;;;;;;;;110609;1253;33876;-38
2022/08/06 09:05:19;;;;;;;4.70;2.80;;;;;;;;;;110574;1253;32110;-37
2022/08/06 09:07:51;;;;;;;4.50;2.70;;;;;;;;;;110604;1253;34806;-37
2022/08/06 09:10:24;;;;;;;4.70;2.80;;;;;;;;;;110604;1254;34777;-37
2022/08/06 09:12:55;;;;;;;;;;;;;;;;;;110616;1247;33779;-37
2022/08/06 09:15:28;;;;;;;3.90;2.40;;;;;;;;;;110606;1253;34141;-38
2022/08/06 09:18:00;;;;;;;4.60;2.40;;;;;;;;;;110564;1253;34938;-37
2022/08/06 09:20:32;;;;;;;5.40;3.00;;;;;;;;;;110602;1248;34770;-37
2022/08/06 09:23:05;;;;;;;4.20;2.40;;;;;;;;;;110598;1252;34166;-37
2022/08/06 09:25:42;;;;;;;4.50;2.70;;;;;;;;;;110453;1245;33256;-38
2022/08/06 09:28:30;;;;;;;5.00;2.50;;;;;;;;;;110606;1253;33150;-37
2022/08/06 09:31:05;;;;;;;4.60;2.70;;;;;;;;;;110585;1253;34518;-37
2022/08/06 09:33:39;;;;;;;5.50;2.80;;;;;;;;;;110600;1244;35055;-36
2022/08/06 09:36:14;;;;;;;4.40;2.50;;;;;;;;;;110626;1253;34878;-37
2022/08/06 09:38:58;;;;;;;4.40;2.60;;;;;;;;;;110620;1253;34744;-36
2022/08/06 09:41:32;;;;;;;4.70;2.20;;;;;;;;;;110603;1253;35020;-36
2022/08/06 09:44:13;;;;;;;5.30;2.60;;;;;;;;;;110613;1253;34130;-36
2022/08/06 09:46:49;;;;;;;4.60;2.50;;;;;;;;;;110629;1254;34689;-36
2022/08/06 09:49:22;;;;;;;4.10;2.00;;;;;;;;;;110588;1245;34782;-36
2022/08/06 09:52:12;;;;;;;5.30;2.50;;;;;;;;;;110423;1254;34913;-37
2022/08/06 09:54:45;;;;;;;4.40;2.40;;;;;;;;;;110575;1250;34052;-36
2022/08/06 09:57:17;;;;;;;4.70;2.80;;;;;;;;;;110581;1253;35041;-39
2022/08/06 09:59:53;;;;;;;4.70;2.70;;;;;;;;;;110591;1247;33403;-35
2022/08/06 10:02:35;;;;;;;5.80;2.50;;;;;;;;;;110597;1254;34719;-35
2022/08/06 10:05:16;;;;;;;4.80;2.50;;;;;;;;;;110594;1251;35117;-37
2022/08/06 10:07:48;;;;;;;4.30;2.20;;;;;;;;;;110621;1254;34903;-34
2022/08/06 10:10:32;;;;;;;4.60;2.00;;;;;;;;;;110588;1253;34154;-34
2022/08/06 10:13:17;;;;;;;4.20;2.00;;;;;;;;;;110647;1245;33204;-36
2022/08/06 10:15:50;;;;;;;4.40;2.00;;;;;;;;;;110608;1254;35099;-37
2022/08/06 10:18:39;;;;;;;4.60;1.80;;;;;;;;;;110597;1248;35402;-37
2022/08/06 10:21:15;;;;;;;3.70;1.70;;;;;;;;;;110587;1247;33205;-37
2022/08/06 10:23:49;;;;;;;4.80;1.80;;;;;;;;;;110579;1254;34755;-37
2022/08/06 10:26:25;;;;;;;4.10;1.70;;;;;;;;;;110609;1253;35162;-37
2022/08/06 10:29:04;;;;;;;4.10;1.80;;;;;;;;;;110623;1244;33122;-37
2022/08/06 10:31:37;;;;;;;3.00;1.50;;;;;;;;;;110630;1248;35013;-38
2022/08/06 10:34:12;;;;;;;5.10;1.90;;;;;;;;;;110613;1253;34741;-37
2022/08/06 10:36:49;;;;;;;4.90;1.90;;;;;;;;;;110626;1254;35171;-37
2022/08/06 10:39:26;;;;;;;4.00;1.60;;;;;;;;;;110618;1253;34723;-37
2022/08/06 10:41:58;;;;;;;5.00;1.90;;;;;;;;;;110612;1248;35250;-37
2022/08/06 10:44:31;;;;;;;3.40;1.40;;;;;;;;;;110617;1244;33157;-39
2022/08/06 10:47:04;;;;;;;2.90;1.30;;;;;;;;;;110580;1253;34782;-37
2022/08/06 10:49:38;;;;;;;3.10;1.60;;;;;;;;;;110547;1253;35005;-36
2022/08/06 10:52:12;;;;;;;4.50;1.50;;;;;;;;;;110637;1251;34645;-36
2022/08/06 10:54:45;;;;;;;3.20;1.30;;;;;;;;;;110574;1244;34704;-36
2022/08/06 10:57:18;;;;;;;4.50;1.70;;;;;;;;;;110611;1245;34505;-36
2022/08/06 10:59:50;;;;;;;3.80;1.50;;;;;;;;;;110580;1254;32684;-37
2022/08/06 11:02:34;;;;;;;3.80;1.30;;;;;;;;;;110637;1253;34613;-37
2022/08/06 11:05:09;;;;;;;3.00;1.30;;;;;;;;;;110647;1248;33163;-36
2022/08/06 11:08:09;;;;;;;3.20;1.50;;;;;;;;;;110601;1253;33118;-36
2022/08/06 11:10:59;;;;;;;3.10;1.30;;;;;;;;;;110603;1248;35262;-37
2022/08/06 11:13:37;;;;;;;4.10;1.40;;;;;;;;;;110632;1244;33948;-37
2022/08/06 11:16:09;;;;;;;5.20;1.80;;;;;;;;;;110617;1253;34737;-37
2022/08/06 11:18:59;;;;;;;3.40;1.10;;;;;;;;;;110616;1247;34118;-37
2022/08/06 11:21:43;;;;;;;3.50;1.40;;;;;;;;;;110645;1244;35411;-36
2022/08/06 11:24:16;;;;;;;3.30;1.20;;;;;;;;;;110596;1244;33100;-34
2022/08/06 11:26:48;;;;;;;4.00;1.30;;;;;;;;;;110612;1253;35082;-33
2022/08/06 11:29:20;;;;;;;3.80;1.30;;;;;;;;;;110624;1253;32076;-37
2022/08/06 11:31:53;;;;;;;3.60;1.40;;;;;;;;;;110613;1248;34854;-35
2022/08/06 11:34:43;;;;;;;3.10;1.20;;;;;;;;;;110625;1253;34530;-34
2022/08/06 11:37:51;;;;;;;4.10;1.30;;;;;;;;;;110600;1247;33152;-35
2022/08/06 11:40:23;;;;;;;3.40;1.30;;;;;;;;;;110599;1253;33978;-35
2022/08/06 11:42:55;;;;;;;4.00;1.30;;;;;;;;;;110599;1253;35257;-35
2022/08/06 11:45:27;;;;;;;2.90;1.30;;;;;;;;;;110582;1248;34973;-34
2022/08/06 11:48:09;;;;;;;2.40;1.30;;;;;;;;;;110601;1253;34813;-34
2022/08/06 11:50:41;;;;;;;3.20;1.20;;;;;;;;;;110635;1246;35263;-35
2022/08/06 11:53:13;;;;;;;4.60;1.70;;;;;;;;;;110594;1254;34663;-36
2022/08/06 11:56:07;;;;;;;2.90;1.20;;;;;;;;;;110591;1253;33155;-37
2022/08/06 11:58:39;;;;;;;3.60;1.40;;;;;;;;;;110610;1244;34531;-35
2022/08/06 12:01:11;;;;;;;3.30;1.10;;;;;;;;;;110586;1248;33115;-33
2022/08/06 12:03:43;;;;;;;3.20;1.10;;;;;;;;;;110627;1253;35112;-33
2022/08/06 12:06:25;;;;;;;4.00;1.30;;;;;;;;;;110602;1254;33115;-34
2022/08/06 12:09:13;;;;;;;3.40;1.20;;;;;;;;;;110615;1253;34839;-34
2022/08/06 12:11:44;;;;;;;3.50;1.10;;;;;;;;;;110588;1245;35142;-35
2022/08/06 12:14:43;;;;;;;3.70;1.20;;;;;;;;;;110593;1251;33485;-36
2022/08/06 12:17:15;;;;;;;4.10;1.30;;;;;;;;;;110613;1253;34738;-36
2022/08/06 12:19:50;;;;;;;2.40;1.20;;;;;;;;;;110308;1252;422719;-36
2022/08/06 12:22:24;;;;;;;2.80;1.20;;;;;;;;;;110587;1253;34993;-35
2022/08/06 12:24:58;;;;;;;3.50;1.30;;;;;;;;;;110619;1252;33112;-35
2022/08/06 12:27:36;;;;;;;4.80;1.40;;;;;;;;;;110631;1253;34852;-35
2022/08/06 12:30:12;;;;;;;4.50;1.50;;;;;;;;;;110628;1253;35082;-35
2022/08/06 12:32:45;;;;;;;3.20;1.30;;;;;;;;;;110644;1254;34458;-37
2022/08/06 12:35:17;;;;;;;3.50;1.40;;;;;;;;;;110593;1253;34795;-37
2022/08/06 12:37:49;;;;;;;3.30;1.20;;;;;;;;;;110621;1246;34493;-35
2022/08/06 12:40:27;;;;;;;5.00;1.30;;;;;;;;;;110631;1253;35283;-35
2022/08/06 12:43:13;;;;;;;3.10;1.30;;;;;;;;;;110630;1253;33083;-36
2022/08/06 12:45:45;;;;;;;2.80;1.20;;;;;;;;;;110594;1254;35404;-36
2022/08/06 12:48:17;;;;;;;3.60;1.30;;;;;;;;;;110634;1253;34096;-36
2022/08/06 12:50:49;;;;;;;2.60;1.00;;;;;;;;;;110654;1253;35122;-36
2022/08/06 12:53:22;;;;;;;2.90;1.30;;;;;;;;;;110550;1253;34790;-35
2022/08/06 12:55:57;;;;;;;3.10;1.20;;;;;;;;;;110471;1248;34716;-35
2022/08/06 12:58:34;;;;;;;4.40;1.40;;;;;;;;;;110517;1254;34631;-35
2022/08/06 13:01:09;;;;;;;4.10;1.30;;;;;;;;;;110474;1254;34825;-35
2022/08/06 13:03:44;;;;;;;3.60;1.50;;;;;;;;;;110485;1247;35149;-35
2022/08/06 13:06:18;;;;;;;3.70;1.40;;;;;;;;;;110499;1254;34890;-36
2022/08/06 13:08:52;;;;;;;3.10;1.50;;;;;;;;;;110466;1254;34765;-36
2022/08/06 13:11:30;;;;;;;3.60;1.70;;;;;;;;;;110447;1254;34830;-35
2022/08/06 13:14:10;;;;;;;3.60;1.50;;;;;;;;;;110455;1248;34858;-35
2022/08/06 13:16:47;;;;;;;3.10;1.40;;;;;;;;;;110471;1248;34096;-37
2022/08/06 13:19:20;;;;;;;5.00;1.60;;;;;;;;;;110510;1247;34978;-37
2022/08/06 13:22:03;;;;;;;3.60;1.60;;;;;;;;;;110454;1247;34648;-37
2022/08/06 13:24:35;;;;;;;6.10;1.70;;;;;;;;;;110429;1254;35022;-36
2022/08/06 13:27:07;;;;;;;3.70;1.60;;;;;;;;;;110436;1254;34608;-33
2022/08/06 13:29:49;;;;;;;4.00;1.40;;;;;;;;;;110460;1254;32908;-33
2022/08/06 13:32:26;;;;;;;5.40;1.70;;;;;;;;;;110462;1254;34877;-36
2022/08/06 13:35:00;;;;;;;4.00;1.70;;;;;;;;;;110426;1254;33139;-35
2022/08/06 13:37:56;;;;;;;3.60;1.50;;;;;;;;;;110448;1254;34643;-36
2022/08/06 13:40:43;;;;;;;4.30;1.70;;;;;;;;;;110389;1253;33185;-35
2022/08/06 13:43:15;;;;;;;4.00;1.70;;;;;;;;;;110487;1247;34846;-36
2022/08/06 13:45:47;;;;;;;3.30;1.50;;;;;;;;;;110440;1247;34896;-36
2022/08/06 13:48:19;;;;;;;2.70;1.50;;;;;;;;;;110438;1254;34418;-38
2022/08/06 13:50:51;;;;;;;5.40;1.80;;;;;;;;;;110466;1254;34522;-37
2022/08/06 13:53:23;;;;;;;3.70;1.80;;;;;;;;;;110430;1254;33866;-35
2022/08/06 13:55:55;;;;;;;4.70;1.60;;;;;;;;;;110445;1247;34576;-39
2022/08/06 13:58:27;;;;;;;4.40;1.80;;;;;;;;;;110456;1248;33612;-37
2022/08/06 14:00:59;;;;;;;4.70;2.20;;;;;;;;;;110447;1248;34870;-39
2022/08/06 14:03:31;;;;;;;5.90;2.30;;;;;;;;;;110449;1254;35225;-36
2022/08/06 14:06:03;;;;;;;4.10;1.90;;;;;;;;;;110421;1254;33149;-35
2022/08/06 14:08:35;;;;;;;4.60;1.80;;;;;;;;;;110425;1248;33284;-38
2022/08/06 14:11:07;;;;;;;4.80;1.90;;;;;;;;;;110469;1248;33112;-39
2022/08/06 14:13:39;;;;;;;4.90;2.20;;;;;;;;;;110445;1247;35341;-34
2022/08/06 14:16:11;;;;;;;4.30;2.00;;;;;;;;;;110484;1254;34787;-34
2022/08/06 14:18:43;;;;;;;4.10;1.90;;;;;;;;;;110426;1254;35084;-35
2022/08/06 14:21:15;;;;;;;4.70;2.00;;;;;;;;;;110436;1247;32962;-34
2022/08/06 14:23:47;;;;;;;3.70;1.80;;;;;;;;;;110466;1253;34932;-34
2022/08/06 14:26:19;;;;;;;4.50;1.70;;;;;;;;;;110473;1253;34702;-35
2022/08/06 14:28:51;;;;;;;4.50;1.90;;;;;;;;;;110441;1247;33711;-35
2022/08/06 14:31:23;;;;;;;3.50;1.90;;;;;;;;;;110427;1254;34082;-36
2022/08/06 14:33:55;;;;;;;4.30;1.80;;;;;;;;;;110466;1248;34023;-37
2022/08/06 14:36:27;;;;;;;4.40;1.50;;;;;;;;;;110427;1248;34330;-38
2022/08/06 14:38:59;;;;;;;4.10;1.60;;;;;;;;;;110443;1247;34623;-36
2022/08/06 14:47:10;;;;;;;5.30;1.70;;;;;;;;;;110469;1254;33277;-37
2022/08/06 14:49:42;;;;;;;4.20;1.90;;;;;;;;;;110450;1247;34865;-37
2022/08/06 14:52:14;;;;;;;3.90;1.50;;;;;;;;;;110467;1248;34730;-36
2022/08/06 14:54:46;;;;;;;4.20;1.80;;;;;;;;;;110473;1254;35124;-35
2022/08/06 14:57:19;;;;;;;5.40;2.10;;;;;;;;;;110412;1254;33166;-36
2022/08/06 14:59:51;;;;;;;4.60;1.80;;;;;;;;;;110468;1254;34734;-35
2022/08/06 15:02:24;;;;;;;4.90;2.20;;;;;;;;;;110459;1248;34347;-34
2022/08/06 15:04:58;;;;;;;3.60;1.90;;;;;;;;;;110462;1254;34719;-36
2022/08/06 15:07:30;;;;;;;4.40;2.10;;;;;;;;;;110445;1254;34170;-34
2022/08/06 15:10:02;;;;;;;5.20;2.40;;;;;;;;;;110443;1254;36678;-33
2022/08/06 15:12:34;;;;;;;4.50;2.40;;;;;;;;;;110409;1254;33188;-36
2022/08/06 15:15:09;;;;;;;4.60;2.20;;;;;;;;;;110375;1246;35266;-35
2022/08/06 15:17:41;;;;;;;4.10;2.20;;;;;;;;;;110352;1254;33908;-35
2022/08/06 15:20:15;;;;;;;3.90;2.10;;;;;;;;;;110395;1253;34820;-34
2022/08/06 15:22:48;;;;;;;4.10;1.80;;;;;;;;;;110412;1247;33953;-34